Terminal Aerodrome Forecast
Issued by NWS

Home | Current Version | Previous Version | Text Only | Print | Product List | Glossary On
Versions: 1 2 3 4 5 6 7 8 9 10 11 12 13 14 15 16 17
747
FTUS43 KGRB 170525
TAFCWA
TAF
KCWA 170525Z 1706/1806 07004KT 1 1/2SM -FZRA BR OVC005
     FM170900 04005KT 3SM -FZRA BR OVC004
     FM171200 03005KT 5SM -SHSNPL BR OVC006
     FM171800 36005KT 5SM -SHSN BKN012
     FM172300 33004KT P6SM BKN025=

USA.gov is the U.S. government's official web portal to all federal, state and local government web resources and services.